sensor_id;sensor_type;location;lat;lon;timestamp;P1;durP1;ratioP1;P2;durP2;ratioP2
7683;SDS011;3884;48.616;12.872;2023-03-14T00:01:37;5.53;;;4.07;;
7683;SDS011;3884;48.616;12.872;2023-03-14T00:04:04;7.13;;;4.57;;
7683;SDS011;3884;48.616;12.872;2023-03-14T00:06:31;5.73;;;4.47;;
7683;SDS011;3884;48.616;12.872;2023-03-14T00:08:58;5.53;;;4.33;;
7683;SDS011;3884;48.616;12.872;2023-03-14T00:11:25;5.33;;;3.90;;
7683;SDS011;3884;48.616;12.872;2023-03-14T00:13:52;6.43;;;3.90;;
7683;SDS011;3884;48.616;12.872;2023-03-14T00:16:19;5.17;;;3.80;;
7683;SDS011;3884;48.616;12.872;2023-03-14T00:18:48;4.80;;;4.20;;
7683;SDS011;3884;48.616;12.872;2023-03-14T00:21:15;6.93;;;4.80;;
7683;SDS011;3884;48.616;12.872;2023-03-14T00:23:42;5.17;;;3.70;;
7683;SDS011;3884;48.616;12.872;2023-03-14T00:26:10;8.57;;;3.83;;
7683;SDS011;3884;48.616;12.872;2023-03-14T00:28:38;4.07;;;3.70;;
7683;SDS011;3884;48.616;12.872;2023-03-14T00:31:09;5.13;;;3.77;;
7683;SDS011;3884;48.616;12.872;2023-03-14T00:33:39;4.57;;;3.80;;
7683;SDS011;3884;48.616;12.872;2023-03-14T00:36:09;5.27;;;3.83;;
7683;SDS011;3884;48.616;12.872;2023-03-14T00:38:38;4.30;;;3.60;;
7683;SDS011;3884;48.616;12.872;2023-03-14T00:41:07;5.30;;;3.77;;
7683;SDS011;3884;48.616;12.872;2023-03-14T00:43:35;4.53;;;3.73;;
7683;SDS011;3884;48.616;12.872;2023-03-14T00:46:02;5.43;;;3.97;;
7683;SDS011;3884;48.616;12.872;2023-03-14T00:48:30;4.30;;;3.90;;
7683;SDS011;3884;48.616;12.872;2023-03-14T00:50:57;4.17;;;3.77;;
7683;SDS011;3884;48.616;12.872;2023-03-14T00:53:25;5.00;;;3.63;;
7683;SDS011;3884;48.616;12.872;2023-03-14T00:55:52;4.73;;;4.00;;
7683;SDS011;3884;48.616;12.872;2023-03-14T00:58:19;4.45;;;4.05;;
7683;SDS011;3884;48.616;12.872;2023-03-14T01:00:46;4.10;;;3.70;;
7683;SDS011;3884;48.616;12.872;2023-03-14T01:03:14;4.20;;;3.70;;
7683;SDS011;3884;48.616;12.872;2023-03-14T01:05:41;5.20;;;4.13;;
7683;SDS011;3884;48.616;12.872;2023-03-14T01:08:08;4.87;;;3.43;;
7683;SDS011;3884;48.616;12.872;2023-03-14T01:10:38;4.60;;;3.80;;
7683;SDS011;3884;48.616;12.872;2023-03-14T01:13:06;5.03;;;3.87;;
7683;SDS011;3884;48.616;12.872;2023-03-14T01:15:35;4.90;;;3.50;;
7683;SDS011;3884;48.616;12.872;2023-03-14T01:18:03;5.03;;;3.63;;
7683;SDS011;3884;48.616;12.872;2023-03-14T01:20:30;4.53;;;3.60;;
7683;SDS011;3884;48.616;12.872;2023-03-14T01:22:57;5.13;;;3.80;;
7683;SDS011;3884;48.616;12.872;2023-03-14T01:25:24;5.07;;;4.50;;
7683;SDS011;3884;48.616;12.872;2023-03-14T01:27:52;5.27;;;4.30;;
7683;SDS011;3884;48.616;12.872;2023-03-14T01:30:19;6.97;;;3.83;;
7683;SDS011;3884;48.616;12.872;2023-03-14T01:32:46;4.53;;;3.80;;
7683;SDS011;3884;48.616;12.872;2023-03-14T01:35:14;4.30;;;3.90;;
7683;SDS011;3884;48.616;12.872;2023-03-14T01:37:41;3.80;;;3.40;;
7683;SDS011;3884;48.616;12.872;2023-03-14T01:40:13;3.50;;;3.20;;
7683;SDS011;3884;48.616;12.872;2023-03-14T01:42:44;4.60;;;3.53;;
7683;SDS011;3884;48.616;12.872;2023-03-14T01:48:19;4.60;;;3.70;;
7683;SDS011;3884;48.616;12.872;2023-03-14T01:50:47;4.87;;;3.47;;
7683;SDS011;3884;48.616;12.872;2023-03-14T01:53:14;4.20;;;3.40;;
7683;SDS011;3884;48.616;12.872;2023-03-14T01:55:42;7.10;;;3.90;;
7683;SDS011;3884;48.616;12.872;2023-03-14T01:58:10;4.67;;;4.10;;
7683;SDS011;3884;48.616;12.872;2023-03-14T02:00:37;4.33;;;3.57;;
7683;SDS011;3884;48.616;12.872;2023-03-14T02:03:05;4.30;;;3.83;;
7683;SDS011;3884;48.616;12.872;2023-03-14T02:05:38;5.00;;;3.90;;
7683;SDS011;3884;48.616;12.872;2023-03-14T02:08:15;6.93;;;4.27;;
7683;SDS011;3884;48.616;12.872;2023-03-14T02:10:58;6.43;;;3.63;;
7683;SDS011;3884;48.616;12.872;2023-03-14T02:13:44;5.20;;;3.90;;
7683;SDS011;3884;48.616;12.872;2023-03-14T02:16:44;5.77;;;3.80;;
7683;SDS011;3884;48.616;12.872;2023-03-14T02:19:34;5.27;;;3.00;;
7683;SDS011;3884;48.616;12.872;2023-03-14T02:22:23;3.43;;;2.70;;
7683;SDS011;3884;48.616;12.872;2023-03-14T02:24:57;2.70;;;2.50;;
7683;SDS011;3884;48.616;12.872;2023-03-14T02:27:34;2.90;;;2.30;;
7683;SDS011;3884;48.616;12.872;2023-03-14T02:30:02;2.40;;;2.20;;
7683;SDS011;3884;48.616;12.872;2023-03-14T02:32:33;3.17;;;2.10;;
7683;SDS011;3884;48.616;12.872;2023-03-14T02:35:03;2.87;;;2.47;;
7683;SDS011;3884;48.616;12.872;2023-03-14T02:37:35;3.20;;;2.00;;
7683;SDS011;3884;48.616;12.872;2023-03-14T02:40:08;2.03;;;1.80;;
7683;SDS011;3884;48.616;12.872;2023-03-14T02:42:39;1.47;;;1.37;;
7683;SDS011;3884;48.616;12.872;2023-03-14T02:47:57;3.33;;;1.50;;
7683;SDS011;3884;48.616;12.872;2023-03-14T02:50:32;1.57;;;1.47;;
7683;SDS011;3884;48.616;12.872;2023-03-14T02:53:01;2.17;;;1.50;;
7683;SDS011;3884;48.616;12.872;2023-03-14T02:55:28;3.80;;;1.60;;
7683;SDS011;3884;48.616;12.872;2023-03-14T02:58:00;2.00;;;1.70;;
7683;SDS011;3884;48.616;12.872;2023-03-14T03:00:27;2.50;;;1.70;;
7683;SDS011;3884;48.616;12.872;2023-03-14T03:02:55;5.87;;;3.70;;
7683;SDS011;3884;48.616;12.872;2023-03-14T03:05:22;1.60;;;1.50;;
7683;SDS011;3884;48.616;12.872;2023-03-14T03:07:49;1.77;;;1.50;;
7683;SDS011;3884;48.616;12.872;2023-03-14T03:10:17;1.50;;;1.40;;
7683;SDS011;3884;48.616;12.872;2023-03-14T03:12:44;1.73;;;1.30;;
7683;SDS011;3884;48.616;12.872;2023-03-14T03:15:12;1.30;;;1.20;;
7683;SDS011;3884;48.616;12.872;2023-03-14T03:17:39;1.57;;;1.10;;
7683;SDS011;3884;48.616;12.872;2023-03-14T03:20:06;2.00;;;1.17;;
7683;SDS011;3884;48.616;12.872;2023-03-14T03:22:34;1.33;;;1.20;;
7683;SDS011;3884;48.616;12.872;2023-03-14T03:25:01;1.63;;;1.20;;
7683;SDS011;3884;48.616;12.872;2023-03-14T03:27:29;1.00;;;1.00;;
7683;SDS011;3884;48.616;12.872;2023-03-14T03:29:57;1.40;;;1.07;;
7683;SDS011;3884;48.616;12.872;2023-03-14T03:32:25;1.63;;;1.20;;
7683;SDS011;3884;48.616;12.872;2023-03-14T03:34:53;1.63;;;1.40;;
7683;SDS011;3884;48.616;12.872;2023-03-14T03:37:20;1.37;;;1.20;;
7683;SDS011;3884;48.616;12.872;2023-03-14T03:39:47;1.30;;;1.20;;
7683;SDS011;3884;48.616;12.872;2023-03-14T03:42:16;1.87;;;1.20;;
7683;SDS011;3884;48.616;12.872;2023-03-14T03:44:44;1.30;;;1.20;;
7683;SDS011;3884;48.616;12.872;2023-03-14T03:47:12;1.30;;;1.20;;
7683;SDS011;3884;48.616;12.872;2023-03-14T03:49:40;1.20;;;1.10;;
7683;SDS011;3884;48.616;12.872;2023-03-14T03:52:09;1.17;;;1.07;;
7683;SDS011;3884;48.616;12.872;2023-03-14T03:54:36;1.10;;;1.10;;
7683;SDS011;3884;48.616;12.872;2023-03-14T03:57:03;1.50;;;1.20;;
7683;SDS011;3884;48.616;12.872;2023-03-14T03:59:30;1.00;;;1.00;;
7683;SDS011;3884;48.616;12.872;2023-03-14T04:01:57;1.40;;;1.10;;
7683;SDS011;3884;48.616;12.872;2023-03-14T04:04:24;1.20;;;1.10;;
7683;SDS011;3884;48.616;12.872;2023-03-14T04:06:53;1.10;;;1.10;;
7683;SDS011;3884;48.616;12.872;2023-03-14T04:09:20;1.10;;;1.00;;
7683;SDS011;3884;48.616;12.872;2023-03-14T04:12:03;1.60;;;1.00;;
7683;SDS011;3884;48.616;12.872;2023-03-14T04:14:39;2.03;;;0.90;;
7683;SDS011;3884;48.616;12.872;2023-03-14T04:17:12;0.97;;;0.90;;
7683;SDS011;3884;48.616;12.872;2023-03-14T04:19:39;0.97;;;0.97;;
7683;SDS011;3884;48.616;12.872;2023-03-14T04:22:09;1.47;;;1.00;;
7683;SDS011;3884;48.616;12.872;2023-03-14T04:24:45;0.90;;;0.90;;
7683;SDS011;3884;48.616;12.872;2023-03-14T04:27:12;0.80;;;0.80;;
7683;SDS011;3884;48.616;12.872;2023-03-14T04:29:41;1.23;;;0.90;;
7683;SDS011;3884;48.616;12.872;2023-03-14T04:32:10;1.00;;;1.00;;
7683;SDS011;3884;48.616;12.872;2023-03-14T04:34:38;1.43;;;0.90;;
7683;SDS011;3884;48.616;12.872;2023-03-14T04:37:05;0.80;;;0.80;;
7683;SDS011;3884;48.616;12.872;2023-03-14T04:39:37;0.70;;;0.70;;
7683;SDS011;3884;48.616;12.872;2023-03-14T04:42:12;0.80;;;0.80;;
7683;SDS011;3884;48.616;12.872;2023-03-14T04:44:39;1.17;;;1.03;;
7683;SDS011;3884;48.616;12.872;2023-03-14T04:47:08;1.10;;;1.00;;
7683;SDS011;3884;48.616;12.872;2023-03-14T04:49:37;0.80;;;0.80;;
7683;SDS011;3884;48.616;12.872;2023-03-14T04:52:05;0.80;;;0.80;;
7683;SDS011;3884;48.616;12.872;2023-03-14T04:54:34;1.00;;;1.00;;
7683;SDS011;3884;48.616;12.872;2023-03-14T04:57:03;2.07;;;1.00;;
7683;SDS011;3884;48.616;12.872;2023-03-14T04:59:33;0.83;;;0.83;;
7683;SDS011;3884;48.616;12.872;2023-03-14T05:02:11;0.80;;;0.80;;
7683;SDS011;3884;48.616;12.872;2023-03-14T05:04:55;1.10;;;1.00;;
7683;SDS011;3884;48.616;12.872;2023-03-14T05:07:37;1.27;;;0.90;;
7683;SDS011;3884;48.616;12.872;2023-03-14T05:10:23;0.70;;;0.70;;
7683;SDS011;3884;48.616;12.872;2023-03-14T05:13:08;0.80;;;0.80;;
7683;SDS011;3884;48.616;12.872;2023-03-14T05:16:04;1.03;;;0.90;;
7683;SDS011;3884;48.616;12.872;2023-03-14T05:19:01;0.90;;;0.90;;
7683;SDS011;3884;48.616;12.872;2023-03-14T05:21:38;1.00;;;0.90;;
7683;SDS011;3884;48.616;12.872;2023-03-14T05:24:19;1.07;;;1.00;;
7683;SDS011;3884;48.616;12.872;2023-03-14T05:27:02;1.13;;;0.90;;
7683;SDS011;3884;48.616;12.872;2023-03-14T05:29:48;1.03;;;0.93;;
7683;SDS011;3884;48.616;12.872;2023-03-14T05:32:35;1.50;;;1.13;;
7683;SDS011;3884;48.616;12.872;2023-03-14T05:35:14;1.50;;;0.80;;
7683;SDS011;3884;48.616;12.872;2023-03-14T05:37:48;0.80;;;0.80;;
7683;SDS011;3884;48.616;12.872;2023-03-14T05:40:41;0.93;;;0.90;;
7683;SDS011;3884;48.616;12.872;2023-03-14T05:43:19;1.00;;;1.00;;
7683;SDS011;3884;48.616;12.872;2023-03-14T05:46:07;1.20;;;1.10;;
7683;SDS011;3884;48.616;12.872;2023-03-14T05:48:48;0.90;;;0.90;;
7683;SDS011;3884;48.616;12.872;2023-03-14T05:51:34;1.37;;;1.03;;
7683;SDS011;3884;48.616;12.872;2023-03-14T05:54:10;1.23;;;0.97;;
7683;SDS011;3884;48.616;12.872;2023-03-14T05:56:59;1.17;;;1.07;;
7683;SDS011;3884;48.616;12.872;2023-03-14T05:59:57;0.90;;;0.90;;
7683;SDS011;3884;48.616;12.872;2023-03-14T06:02:47;1.53;;;1.40;;
7683;SDS011;3884;48.616;12.872;2023-03-14T06:05:26;1.63;;;1.20;;
7683;SDS011;3884;48.616;12.872;2023-03-14T06:07:58;0.90;;;0.90;;
7683;SDS011;3884;48.616;12.872;2023-03-14T06:10:29;1.10;;;1.03;;
7683;SDS011;3884;48.616;12.872;2023-03-14T06:12:56;1.23;;;1.10;;
7683;SDS011;3884;48.616;12.872;2023-03-14T06:15:24;1.20;;;1.10;;
7683;SDS011;3884;48.616;12.872;2023-03-14T06:17:54;1.77;;;1.67;;
7683;SDS011;3884;48.616;12.872;2023-03-14T06:20:21;1.90;;;1.70;;
7683;SDS011;3884;48.616;12.872;2023-03-14T06:22:48;2.20;;;1.80;;
7683;SDS011;3884;48.616;12.872;2023-03-14T06:25:15;1.87;;;1.60;;
7683;SDS011;3884;48.616;12.872;2023-03-14T06:27:45;1.20;;;1.10;;
7683;SDS011;3884;48.616;12.872;2023-03-14T06:30:13;2.07;;;1.87;;
7683;SDS011;3884;48.616;12.872;2023-03-14T06:32:41;1.77;;;1.67;;
7683;SDS011;3884;48.616;12.872;2023-03-14T06:35:11;2.00;;;1.80;;
7683;SDS011;3884;48.616;12.872;2023-03-14T06:37:41;2.20;;;2.00;;
7683;SDS011;3884;48.616;12.872;2023-03-14T06:40:08;2.47;;;1.53;;
7683;SDS011;3884;48.616;12.872;2023-03-14T06:42:58;1.80;;;1.57;;
7683;SDS011;3884;48.616;12.872;2023-03-14T06:45:27;1.37;;;1.27;;
7683;SDS011;3884;48.616;12.872;2023-03-14T06:47:57;1.10;;;1.00;;
7683;SDS011;3884;48.616;12.872;2023-03-14T06:50:33;1.00;;;1.00;;
7683;SDS011;3884;48.616;12.872;2023-03-14T06:53:00;1.50;;;1.40;;
7683;SDS011;3884;48.616;12.872;2023-03-14T06:55:27;1.17;;;1.07;;
7683;SDS011;3884;48.616;12.872;2023-03-14T06:57:54;1.10;;;1.00;;
7683;SDS011;3884;48.616;12.872;2023-03-14T07:00:22;1.30;;;1.03;;
7683;SDS011;3884;48.616;12.872;2023-03-14T07:02:53;1.37;;;1.27;;
7683;SDS011;3884;48.616;12.872;2023-03-14T07:05:29;1.20;;;1.10;;
7683;SDS011;3884;48.616;12.872;2023-03-14T07:07:56;1.03;;;1.00;;
7683;SDS011;3884;48.616;12.872;2023-03-14T07:10:23;1.40;;;1.30;;
7683;SDS011;3884;48.616;12.872;2023-03-14T07:12:50;1.30;;;1.20;;
7683;SDS011;3884;48.616;12.872;2023-03-14T07:15:19;1.20;;;1.10;;
7683;SDS011;3884;48.616;12.872;2023-03-14T07:17:50;1.07;;;1.00;;
7683;SDS011;3884;48.616;12.872;2023-03-14T07:20:20;1.37;;;1.17;;
7683;SDS011;3884;48.616;12.872;2023-03-14T07:22:49;0.90;;;0.90;;
7683;SDS011;3884;48.616;12.872;2023-03-14T07:25:29;0.90;;;0.90;;
7683;SDS011;3884;48.616;12.872;2023-03-14T07:27:56;1.07;;;1.00;;
7683;SDS011;3884;48.616;12.872;2023-03-14T07:30:23;2.43;;;1.10;;
7683;SDS011;3884;48.616;12.872;2023-03-14T07:32:50;1.20;;;1.10;;
7683;SDS011;3884;48.616;12.872;2023-03-14T07:35:17;1.40;;;1.27;;
7683;SDS011;3884;48.616;12.872;2023-03-14T07:37:44;1.20;;;1.10;;
7683;SDS011;3884;48.616;12.872;2023-03-14T07:40:14;1.17;;;1.07;;
7683;SDS011;3884;48.616;12.872;2023-03-14T07:42:41;2.43;;;1.37;;
7683;SDS011;3884;48.616;12.872;2023-03-14T07:45:14;1.20;;;1.10;;
7683;SDS011;3884;48.616;12.872;2023-03-14T07:47:41;1.23;;;1.13;;
7683;SDS011;3884;48.616;12.872;2023-03-14T07:50:09;1.20;;;1.10;;
7683;SDS011;3884;48.616;12.872;2023-03-14T07:52:36;0.93;;;0.93;;
7683;SDS011;3884;48.616;12.872;2023-03-14T07:55:03;2.83;;;1.10;;
7683;SDS011;3884;48.616;12.872;2023-03-14T07:57:32;1.27;;;1.00;;
7683;SDS011;3884;48.616;12.872;2023-03-14T07:59:59;1.13;;;1.03;;
7683;SDS011;3884;48.616;12.872;2023-03-14T08:02:26;1.93;;;1.13;;
7683;SDS011;3884;48.616;12.872;2023-03-14T08:04:53;1.50;;;1.00;;
7683;SDS011;3884;48.616;12.872;2023-03-14T08:07:20;0.80;;;0.80;;
7683;SDS011;3884;48.616;12.872;2023-03-14T08:09:47;0.80;;;0.80;;
7683;SDS011;3884;48.616;12.872;2023-03-14T08:12:13;1.13;;;1.00;;
7683;SDS011;3884;48.616;12.872;2023-03-14T08:14:42;1.33;;;1.10;;
7683;SDS011;3884;48.616;12.872;2023-03-14T08:17:09;1.00;;;1.00;;
7683;SDS011;3884;48.616;12.872;2023-03-14T08:19:36;2.03;;;1.30;;
7683;SDS011;3884;48.616;12.872;2023-03-14T08:22:03;1.47;;;1.00;;
7683;SDS011;3884;48.616;12.872;2023-03-14T08:24:30;1.30;;;1.00;;
7683;SDS011;3884;48.616;12.872;2023-03-14T08:26:57;1.63;;;1.37;;
7683;SDS011;3884;48.616;12.872;2023-03-14T08:29:24;1.33;;;0.97;;
7683;SDS011;3884;48.616;12.872;2023-03-14T08:31:52;1.10;;;0.90;;
7683;SDS011;3884;48.616;12.872;2023-03-14T08:34:19;1.47;;;1.10;;
7683;SDS011;3884;48.616;12.872;2023-03-14T08:36:46;1.10;;;1.00;;
7683;SDS011;3884;48.616;12.872;2023-03-14T08:39:13;1.93;;;1.10;;
7683;SDS011;3884;48.616;12.872;2023-03-14T08:41:40;0.80;;;0.80;;
7683;SDS011;3884;48.616;12.872;2023-03-14T08:44:09;0.90;;;0.90;;
7683;SDS011;3884;48.616;12.872;2023-03-14T08:46:37;1.00;;;1.00;;
7683;SDS011;3884;48.616;12.872;2023-03-14T08:49:05;1.43;;;0.90;;
7683;SDS011;3884;48.616;12.872;2023-03-14T08:51:32;1.10;;;1.00;;
7683;SDS011;3884;48.616;12.872;2023-03-14T08:53:59;2.33;;;1.20;;
7683;SDS011;3884;48.616;12.872;2023-03-14T08:56:26;1.30;;;1.20;;
7683;SDS011;3884;48.616;12.872;2023-03-14T08:58:53;1.00;;;0.90;;
7683;SDS011;3884;48.616;12.872;2023-03-14T09:01:19;1.13;;;1.03;;
7683;SDS011;3884;48.616;12.872;2023-03-14T09:03:49;1.87;;;1.10;;
7683;SDS011;3884;48.616;12.872;2023-03-14T09:06:17;2.50;;;1.47;;
7683;SDS011;3884;48.616;12.872;2023-03-14T09:08:44;0.90;;;0.90;;
7683;SDS011;3884;48.616;12.872;2023-03-14T09:11:12;1.50;;;1.10;;
7683;SDS011;3884;48.616;12.872;2023-03-14T09:13:39;1.93;;;1.50;;
7683;SDS011;3884;48.616;12.872;2023-03-14T09:16:07;2.27;;;1.20;;
7683;SDS011;3884;48.616;12.872;2023-03-14T09:18:35;1.20;;;1.03;;
7683;SDS011;3884;48.616;12.872;2023-03-14T09:21:02;2.97;;;1.40;;
7683;SDS011;3884;48.616;12.872;2023-03-14T09:23:30;1.80;;;1.00;;
7683;SDS011;3884;48.616;12.872;2023-03-14T09:25:58;1.23;;;1.13;;
7683;SDS011;3884;48.616;12.872;2023-03-14T09:28:26;1.20;;;1.10;;
7683;SDS011;3884;48.616;12.872;2023-03-14T09:30:53;0.90;;;0.90;;
7683;SDS011;3884;48.616;12.872;2023-03-14T09:33:20;1.83;;;1.30;;
7683;SDS011;3884;48.616;12.872;2023-03-14T09:35:47;1.20;;;1.10;;
7683;SDS011;3884;48.616;12.872;2023-03-14T09:38:14;1.10;;;1.00;;
7683;SDS011;3884;48.616;12.872;2023-03-14T09:40:42;1.40;;;1.10;;
7683;SDS011;3884;48.616;12.872;2023-03-14T09:43:09;2.40;;;1.27;;
7683;SDS011;3884;48.616;12.872;2023-03-14T09:45:39;1.57;;;1.00;;
7683;SDS011;3884;48.616;12.872;2023-03-14T09:48:11;2.13;;;1.00;;
7683;SDS011;3884;48.616;12.872;2023-03-14T09:50:41;2.53;;;1.20;;
7683;SDS011;3884;48.616;12.872;2023-03-14T09:53:11;1.20;;;1.10;;
7683;SDS011;3884;48.616;12.872;2023-03-14T09:55:43;0.90;;;0.90;;
7683;SDS011;3884;48.616;12.872;2023-03-14T09:58:13;2.13;;;1.20;;
7683;SDS011;3884;48.616;12.872;2023-03-14T10:00:43;2.00;;;1.03;;
7683;SDS011;3884;48.616;12.872;2023-03-14T10:03:20;1.80;;;1.00;;
7683;SDS011;3884;48.616;12.872;2023-03-14T10:05:49;1.80;;;1.17;;
7683;SDS011;3884;48.616;12.872;2023-03-14T10:08:16;1.33;;;1.20;;
7683;SDS011;3884;48.616;12.872;2023-03-14T10:10:44;3.50;;;0.90;;
7683;SDS011;3884;48.616;12.872;2023-03-14T10:13:13;1.93;;;1.17;;
7683;SDS011;3884;48.616;12.872;2023-03-14T10:15:46;1.23;;;0.93;;
7683;SDS011;3884;48.616;12.872;2023-03-14T10:18:14;1.53;;;1.00;;
7683;SDS011;3884;48.616;12.872;2023-03-14T10:20:42;4.33;;;1.20;;
7683;SDS011;3884;48.616;12.872;2023-03-14T10:23:23;2.27;;;0.90;;
7683;SDS011;3884;48.616;12.872;2023-03-14T10:26:03;1.73;;;1.03;;
7683;SDS011;3884;48.616;12.872;2023-03-14T10:28:38;1.07;;;0.97;;
7683;SDS011;3884;48.616;12.872;2023-03-14T10:31:06;1.07;;;0.97;;
7683;SDS011;3884;48.616;12.872;2023-03-14T10:33:35;2.07;;;1.00;;
7683;SDS011;3884;48.616;12.872;2023-03-14T10:36:03;18.43;;;5.27;;
7683;SDS011;3884;48.616;12.872;2023-03-14T10:38:40;1.77;;;1.30;;
7683;SDS011;3884;48.616;12.872;2023-03-14T10:41:15;1.27;;;1.10;;
7683;SDS011;3884;48.616;12.872;2023-03-14T10:43:44;2.27;;;1.30;;
7683;SDS011;3884;48.616;12.872;2023-03-14T10:46:15;3.80;;;2.17;;
7683;SDS011;3884;48.616;12.872;2023-03-14T10:49:04;3.70;;;2.10;;
7683;SDS011;3884;48.616;12.872;2023-03-14T10:51:31;1.30;;;1.20;;
7683;SDS011;3884;48.616;12.872;2023-03-14T10:53:59;1.70;;;0.90;;
7683;SDS011;3884;48.616;12.872;2023-03-14T10:56:33;1.13;;;1.03;;
7683;SDS011;3884;48.616;12.872;2023-03-14T10:59:02;1.23;;;1.10;;
7683;SDS011;3884;48.616;12.872;2023-03-14T11:01:36;1.73;;;1.20;;
7683;SDS011;3884;48.616;12.872;2023-03-14T11:04:10;1.00;;;0.90;;
7683;SDS011;3884;48.616;12.872;2023-03-14T11:06:48;2.40;;;1.10;;
7683;SDS011;3884;48.616;12.872;2023-03-14T11:09:22;1.57;;;1.17;;
7683;SDS011;3884;48.616;12.872;2023-03-14T11:11:58;1.10;;;0.90;;
7683;SDS011;3884;48.616;12.872;2023-03-14T11:14:30;1.57;;;1.20;;
7683;SDS011;3884;48.616;12.872;2023-03-14T11:17:04;1.53;;;0.90;;
7683;SDS011;3884;48.616;12.872;2023-03-14T11:19:42;1.10;;;1.00;;
7683;SDS011;3884;48.616;12.872;2023-03-14T11:22:20;1.00;;;1.00;;
7683;SDS011;3884;48.616;12.872;2023-03-14T11:24:55;1.13;;;1.03;;
7683;SDS011;3884;48.616;12.872;2023-03-14T11:27:42;2.70;;;1.20;;
7683;SDS011;3884;48.616;12.872;2023-03-14T11:30:17;0.90;;;0.90;;
7683;SDS011;3884;48.616;12.872;2023-03-14T11:32:49;2.17;;;1.17;;
7683;SDS011;3884;48.616;12.872;2023-03-14T11:35:22;1.47;;;1.00;;
7683;SDS011;3884;48.616;12.872;2023-03-14T11:37:54;1.30;;;1.13;;
7683;SDS011;3884;48.616;12.872;2023-03-14T11:40:28;1.53;;;1.10;;
7683;SDS011;3884;48.616;12.872;2023-03-14T11:43:04;1.20;;;1.10;;
7683;SDS011;3884;48.616;12.872;2023-03-14T11:45:37;1.10;;;1.00;;
7683;SDS011;3884;48.616;12.872;2023-03-14T11:48:20;1.17;;;1.07;;
7683;SDS011;3884;48.616;12.872;2023-03-14T11:50:55;1.60;;;1.40;;
7683;SDS011;3884;48.616;12.872;2023-03-14T11:53:29;2.23;;;1.17;;
7683;SDS011;3884;48.616;12.872;2023-03-14T11:56:08;1.30;;;1.00;;
7683;SDS011;3884;48.616;12.872;2023-03-14T11:58:43;1.00;;;1.00;;
7683;SDS011;3884;48.616;12.872;2023-03-14T12:01:16;1.20;;;1.10;;
7683;SDS011;3884;48.616;12.872;2023-03-14T12:03:49;1.53;;;1.00;;
7683;SDS011;3884;48.616;12.872;2023-03-14T12:06:21;1.07;;;1.00;;
7683;SDS011;3884;48.616;12.872;2023-03-14T12:08:52;0.87;;;0.87;;
7683;SDS011;3884;48.616;12.872;2023-03-14T12:11:30;1.20;;;1.10;;
7683;SDS011;3884;48.616;12.872;2023-03-14T12:14:02;1.80;;;1.13;;
7683;SDS011;3884;48.616;12.872;2023-03-14T12:16:33;1.23;;;1.13;;
7683;SDS011;3884;48.616;12.872;2023-03-14T12:19:24;1.00;;;1.00;;
7683;SDS011;3884;48.616;12.872;2023-03-14T12:21:55;1.63;;;1.20;;
7683;SDS011;3884;48.616;12.872;2023-03-14T12:24:26;1.93;;;1.00;;
7683;SDS011;3884;48.616;12.872;2023-03-14T12:26:55;1.27;;;1.10;;
7683;SDS011;3884;48.616;12.872;2023-03-14T12:29:24;1.33;;;1.17;;
7683;SDS011;3884;48.616;12.872;2023-03-14T12:32:08;1.20;;;1.10;;
7683;SDS011;3884;48.616;12.872;2023-03-14T12:34:47;1.20;;;1.10;;
7683;SDS011;3884;48.616;12.872;2023-03-14T12:37:16;1.70;;;1.10;;
7683;SDS011;3884;48.616;12.872;2023-03-14T12:39:53;2.17;;;1.30;;
7683;SDS011;3884;48.616;12.872;2023-03-14T12:42:38;1.57;;;1.30;;
7683;SDS011;3884;48.616;12.872;2023-03-14T12:45:23;1.40;;;1.10;;
7683;SDS011;3884;48.616;12.872;2023-03-14T12:50:40;1.23;;;1.13;;
7683;SDS011;3884;48.616;12.872;2023-03-14T12:53:19;1.30;;;1.20;;
7683;SDS011;3884;48.616;12.872;2023-03-14T12:56:11;2.23;;;1.00;;
7683;SDS011;3884;48.616;12.872;2023-03-14T12:58:47;1.13;;;1.03;;
7683;SDS011;3884;48.616;12.872;2023-03-14T13:01:25;1.97;;;1.10;;
7683;SDS011;3884;48.616;12.872;2023-03-14T13:03:52;1.77;;;1.20;;
7683;SDS011;3884;48.616;12.872;2023-03-14T13:12:27;2.37;;;1.17;;
7683;SDS011;3884;48.616;12.872;2023-03-14T13:14:57;1.27;;;1.17;;
7683;SDS011;3884;48.616;12.872;2023-03-14T13:17:30;2.50;;;1.27;;
7683;SDS011;3884;48.616;12.872;2023-03-14T13:20:00;1.13;;;1.00;;
7683;SDS011;3884;48.616;12.872;2023-03-14T13:22:32;1.80;;;1.00;;
7683;SDS011;3884;48.616;12.872;2023-03-14T13:25:02;1.10;;;1.00;;
7683;SDS011;3884;48.616;12.872;2023-03-14T13:27:31;1.10;;;1.00;;
7683;SDS011;3884;48.616;12.872;2023-03-14T13:30:04;2.50;;;1.10;;
7683;SDS011;3884;48.616;12.872;2023-03-14T13:32:41;1.20;;;1.00;;
7683;SDS011;3884;48.616;12.872;2023-03-14T13:35:14;2.00;;;1.00;;
7683;SDS011;3884;48.616;12.872;2023-03-14T13:37:42;1.33;;;1.17;;
7683;SDS011;3884;48.616;12.872;2023-03-14T13:40:17;1.47;;;1.10;;
7683;SDS011;3884;48.616;12.872;2023-03-14T13:42:45;1.30;;;1.20;;
7683;SDS011;3884;48.616;12.872;2023-03-14T13:45:13;1.17;;;1.00;;
7683;SDS011;3884;48.616;12.872;2023-03-14T13:47:41;2.00;;;1.17;;
7683;SDS011;3884;48.616;12.872;2023-03-14T13:50:15;1.57;;;1.00;;
7683;SDS011;3884;48.616;12.872;2023-03-14T13:52:44;1.30;;;1.10;;
7683;SDS011;3884;48.616;12.872;2023-03-14T13:55:14;2.17;;;1.17;;
7683;SDS011;3884;48.616;12.872;2023-03-14T13:57:43;1.27;;;1.17;;
7683;SDS011;3884;48.616;12.872;2023-03-14T14:00:17;2.63;;;1.20;;
7683;SDS011;3884;48.616;12.872;2023-03-14T14:02:47;1.20;;;1.10;;
7683;SDS011;3884;48.616;12.872;2023-03-14T14:05:14;1.60;;;1.03;;
7683;SDS011;3884;48.616;12.872;2023-03-14T14:07:42;2.23;;;1.10;;
7683;SDS011;3884;48.616;12.872;2023-03-14T14:10:10;1.73;;;1.10;;
7683;SDS011;3884;48.616;12.872;2023-03-14T14:12:39;0.93;;;0.90;;
7683;SDS011;3884;48.616;12.872;2023-03-14T14:15:11;1.70;;;1.10;;
7683;SDS011;3884;48.616;12.872;2023-03-14T14:17:41;1.53;;;1.10;;
7683;SDS011;3884;48.616;12.872;2023-03-14T14:20:13;2.97;;;1.50;;
7683;SDS011;3884;48.616;12.872;2023-03-14T14:22:46;1.90;;;1.10;;
7683;SDS011;3884;48.616;12.872;2023-03-14T14:25:14;1.40;;;0.90;;
7683;SDS011;3884;48.616;12.872;2023-03-14T14:27:42;1.50;;;1.10;;
7683;SDS011;3884;48.616;12.872;2023-03-14T14:30:27;1.30;;;1.20;;
7683;SDS011;3884;48.616;12.872;2023-03-14T14:33:09;1.30;;;1.20;;
7683;SDS011;3884;48.616;12.872;2023-03-14T14:35:52;7.13;;;4.63;;
7683;SDS011;3884;48.616;12.872;2023-03-14T14:38:21;2.40;;;1.70;;
7683;SDS011;3884;48.616;12.872;2023-03-14T14:40:49;1.53;;;1.40;;
7683;SDS011;3884;48.616;12.872;2023-03-14T14:43:20;1.30;;;1.20;;
7683;SDS011;3884;48.616;12.872;2023-03-14T14:45:49;2.00;;;1.30;;
7683;SDS011;3884;48.616;12.872;2023-03-14T14:48:19;2.10;;;1.60;;
7683;SDS011;3884;48.616;12.872;2023-03-14T14:50:49;2.20;;;1.60;;
7683;SDS011;3884;48.616;12.872;2023-03-14T14:53:28;3.67;;;1.60;;
7683;SDS011;3884;48.616;12.872;2023-03-14T14:55:57;3.30;;;1.83;;
7683;SDS011;3884;48.616;12.872;2023-03-14T14:58:26;2.40;;;2.20;;
7683;SDS011;3884;48.616;12.872;2023-03-14T15:00:58;2.10;;;1.90;;
7683;SDS011;3884;48.616;12.872;2023-03-14T15:03:30;1.77;;;1.10;;
7683;SDS011;3884;48.616;12.872;2023-03-14T15:05:59;1.40;;;1.30;;
7683;SDS011;3884;48.616;12.872;2023-03-14T15:08:28;3.97;;;1.47;;
7683;SDS011;3884;48.616;12.872;2023-03-14T15:10:55;1.53;;;1.10;;
7683;SDS011;3884;48.616;12.872;2023-03-14T15:13:22;1.60;;;1.20;;
7683;SDS011;3884;48.616;12.872;2023-03-14T15:15:49;1.17;;;1.07;;
7683;SDS011;3884;48.616;12.872;2023-03-14T15:18:21;2.83;;;1.67;;
7683;SDS011;3884;48.616;12.872;2023-03-14T15:20:49;2.57;;;1.10;;
7683;SDS011;3884;48.616;12.872;2023-03-14T15:23:18;2.13;;;1.87;;
7683;SDS011;3884;48.616;12.872;2023-03-14T15:25:46;2.33;;;1.30;;
7683;SDS011;3884;48.616;12.872;2023-03-14T15:28:14;1.40;;;1.00;;
7683;SDS011;3884;48.616;12.872;2023-03-14T15:30:45;1.27;;;0.87;;
7683;SDS011;3884;48.616;12.872;2023-03-14T15:33:12;1.20;;;0.90;;
7683;SDS011;3884;48.616;12.872;2023-03-14T15:35:39;0.87;;;0.83;;
7683;SDS011;3884;48.616;12.872;2023-03-14T15:38:09;0.77;;;0.77;;
7683;SDS011;3884;48.616;12.872;2023-03-14T15:40:38;1.30;;;1.20;;